首页
METAR-TAF:

METAR-TAF

机场 :

奥利弗·坦博国际机场

约翰内斯堡, 南非共和國

纬度: 26-08S, 经度: 028-14E, 海拔: 1694米

当前天气观测

该预报发布于27分钟前的14:30 UTC
风速13节,风向西北
温度 15°C
湿度 44%
气压 1027 hPa
能见度10公里或以上
1500米以下无云,无积雨云

METAR: FAOR 081430Z 32013KT CAVOK 15/03 Q1027 NOSIG

时间: 16:57 (14:57 UTC)

预报

该预报发布于4小时和57分钟前的10:00 UTC
预报有效从08日的 12点(UTC)到 09日的 18点(UTC)
风速12节,风向北转西北
能见度10公里或以上
1500米以下无云,无积雨云
几率 30% :
短暂存在
从 09日的 02点(UTC)到 09日的 05点(UTC)
能見度: 5000
轻雾
从 09日的 0700点(UTC)
风速15节,风向西转西北
能见度10公里或以上
1500米以下无云,无积雨云

TAF: FAOR 081000Z 0812/0918 33012KT CAVOK TX19/0913Z TN05/0904Z PROB30 TEMPO 0902/0905 5000 BR NSC FM090700 29015KT CAVOK

超过4000个机场的气象观测和天气预报(METAR&TAF报告)。

可查询的气象台以黄色和红色小点在地图上表示。

将鼠标移到小点上方,可查看气象台名称。

然后点击查看天气观测和预报。

如需切换地图:点击带黑十字的绿色按钮放大地图;点击带横线的绿色按钮缩小地图;或者点击绿色箭头查看邻近地区的地图。


METAR-TAF: